createdAt,value
2023-01-30T00:02:24.588Z,-3.60
2023-01-30T00:06:26.886Z,-3.40
2023-01-30T00:10:29.547Z,-3.30
2023-01-30T00:14:29.701Z,-3.10
2023-01-30T00:18:29.960Z,-3.10
2023-01-30T00:22:33.153Z,-3.10
2023-01-30T00:26:35.974Z,-3.00
2023-01-30T00:30:36.132Z,-3.00
2023-01-30T00:34:36.402Z,-2.90
2023-01-30T00:38:36.976Z,-2.90
2023-01-30T00:42:55.107Z,-2.90
2023-01-30T00:47:10.437Z,-2.90
2023-01-30T00:51:10.560Z,-2.80
2023-01-30T00:55:12.230Z,-2.70
2023-01-30T00:59:14.880Z,-2.70
2023-01-30T01:03:15.044Z,-2.60
2023-01-30T01:07:17.269Z,-2.60
2023-01-30T01:11:24.658Z,-2.50
2023-01-30T01:15:29.494Z,-2.40
2023-01-30T01:19:29.727Z,-2.30
2023-01-30T01:23:29.907Z,-2.30
2023-01-30T01:27:31.324Z,-2.20
2023-01-30T01:31:34.623Z,-2.00
2023-01-30T01:35:34.829Z,-2.00
2023-01-30T01:39:47.103Z,-2.00
2023-01-30T01:44:06.993Z,-2.00
2023-01-30T01:48:20.741Z,-1.80
2023-01-30T01:52:21.611Z,-1.80
2023-01-30T01:56:24.204Z,-1.70
2023-01-30T02:00:25.113Z,-1.60
2023-01-30T02:04:43.787Z,-1.60
2023-01-30T02:08:51.767Z,-1.60
2023-01-30T02:12:53.762Z,-1.60
2023-01-30T02:16:55.185Z,-1.60
2023-01-30T02:21:30.751Z,-1.50
2023-01-30T02:26:21.920Z,-1.50
2023-01-30T02:31:10.907Z,-1.50
2023-01-30T02:35:26.453Z,-1.50
2023-01-30T02:39:44.225Z,-1.60
2023-01-30T02:43:58.933Z,-1.60
2023-01-30T02:48:06.579Z,-1.60
2023-01-30T02:52:10.990Z,-1.70
2023-01-30T02:56:11.093Z,-1.70
2023-01-30T03:00:14.085Z,-1.70
2023-01-30T03:04:50.094Z,-1.70
2023-01-30T03:09:09.320Z,-1.70
2023-01-30T03:13:22.419Z,-1.70
2023-01-30T03:17:27.557Z,-1.60
2023-01-30T03:21:30.543Z,-1.50
2023-01-30T03:25:31.597Z,-1.40
2023-01-30T03:29:31.748Z,-1.40
2023-01-30T03:33:31.859Z,-1.40
2023-01-30T03:37:35.013Z,-1.30
2023-01-30T03:41:35.171Z,-1.30
2023-01-30T03:45:36.415Z,-1.30
2023-01-30T03:49:36.587Z,-1.30
2023-01-30T03:53:39.382Z,-1.30
2023-01-30T03:57:39.747Z,-1.20
2023-01-30T04:01:40.317Z,-1.10
2023-01-30T04:05:41.381Z,-1.10
2023-01-30T04:09:44.487Z,-1.20
2023-01-30T04:13:45.239Z,-1.20
2023-01-30T04:17:47.919Z,-1.20
2023-01-30T04:22:06.879Z,-1.20
2023-01-30T04:26:11.091Z,-1.20
2023-01-30T04:30:14.827Z,-1.10
2023-01-30T04:34:15.800Z,-1.10
2023-01-30T04:38:16.391Z,-1.00
2023-01-30T04:42:19.195Z,-0.90
2023-01-30T04:46:38.038Z,-0.90
2023-01-30T04:50:38.968Z,-0.80
2023-01-30T04:54:40.134Z,-0.80
2023-01-30T04:58:43.008Z,-0.70
2023-01-30T05:02:43.721Z,-0.70
2023-01-30T05:06:44.133Z,-0.70
2023-01-30T05:10:44.382Z,-0.60
2023-01-30T05:14:46.995Z,-0.60
2023-01-30T05:18:47.484Z,-0.60
2023-01-30T05:22:47.701Z,-0.60
2023-01-30T05:26:47.746Z,-0.60
2023-01-30T05:30:50.417Z,-0.60
2023-01-30T05:34:52.371Z,-0.60
2023-01-30T05:38:52.565Z,-0.70
2023-01-30T05:42:52.567Z,-0.70
2023-01-30T05:46:55.321Z,-0.70
2023-01-30T05:50:55.844Z,-0.60
2023-01-30T05:54:56.258Z,-0.60
2023-01-30T05:58:58.285Z,-0.60
2023-01-30T06:03:01.141Z,-0.60
2023-01-30T06:07:01.323Z,-0.60
2023-01-30T06:11:04.020Z,-0.50
2023-01-30T06:15:04.358Z,-0.60
2023-01-30T06:19:07.125Z,-0.60
2023-01-30T06:23:07.209Z,-0.50
2023-01-30T06:27:07.448Z,-0.50
2023-01-30T06:31:10.423Z,-0.50
2023-01-30T06:35:13.672Z,-0.50
2023-01-30T06:39:14.057Z,-0.60
2023-01-30T06:43:14.407Z,-0.70
2023-01-30T06:47:14.488Z,-0.60
2023-01-30T06:51:17.260Z,-0.50
2023-01-30T06:55:21.024Z,-0.50
2023-01-30T06:59:21.300Z,-0.50
2023-01-30T07:03:22.548Z,-0.40
2023-01-30T07:07:25.239Z,-0.40
2023-01-30T07:11:25.312Z,-0.40
2023-01-30T07:15:25.417Z,-0.30
2023-01-30T07:19:25.806Z,-0.30
2023-01-30T07:23:28.598Z,-0.30
2023-01-30T07:27:29.105Z,-0.40
2023-01-30T07:31:29.683Z,-0.30
2023-01-30T07:35:36.846Z,-0.30
2023-01-30T07:39:39.686Z,-0.40
2023-01-30T07:43:40.016Z,-0.40
2023-01-30T07:47:40.187Z,-0.30
2023-01-30T07:51:40.353Z,-0.30
2023-01-30T07:55:43.754Z,-0.30
2023-01-30T07:59:56.627Z,-0.30
2023-01-30T08:04:34.339Z,-0.30
2023-01-30T08:09:06.751Z,-0.30
2023-01-30T08:13:21.272Z,-0.30
2023-01-30T08:17:40.680Z,-0.10
2023-01-30T08:21:47.440Z,0.00
2023-01-30T08:25:47.626Z,0.00
2023-01-30T08:29:58.434Z,0.00
2023-01-30T08:34:01.640Z,0.00
2023-01-30T08:38:03.567Z,0.00
2023-01-30T08:42:03.994Z,0.00
2023-01-30T08:46:07.433Z,0.00
2023-01-30T08:50:08.714Z,0.10
2023-01-30T08:54:10.276Z,0.10
2023-01-30T08:58:10.830Z,0.10
2023-01-30T09:02:16.542Z,0.10
2023-01-30T09:06:16.906Z,0.00
2023-01-30T09:10:17.984Z,0.00
2023-01-30T09:14:19.947Z,0.00
2023-01-30T09:18:22.731Z,0.10
2023-01-30T09:22:22.810Z,0.20
2023-01-30T09:26:22.893Z,0.20
2023-01-30T09:30:23.342Z,0.20
2023-01-30T09:34:28.594Z,0.20
2023-01-30T09:38:28.959Z,0.20
2023-01-30T09:43:11.286Z,0.20
2023-01-30T09:47:16.913Z,0.30
2023-01-30T09:51:46.232Z,0.20
2023-01-30T09:55:46.885Z,0.30
2023-01-30T10:00:00.621Z,0.30
2023-01-30T10:04:16.421Z,0.30
2023-01-30T10:08:48.786Z,0.30
2023-01-30T10:13:05.360Z,0.40
2023-01-30T10:17:32.728Z,0.30
2023-01-30T10:21:50.353Z,0.40
2023-01-30T10:25:58.546Z,0.40
2023-01-30T10:30:04.073Z,0.50
2023-01-30T10:34:09.249Z,0.60
2023-01-30T10:38:22.765Z,0.70
2023-01-30T10:42:34.883Z,0.70
2023-01-30T10:46:55.765Z,0.70
2023-01-30T10:51:01.901Z,0.70
2023-01-30T10:55:18.127Z,0.80
2023-01-30T10:59:38.635Z,0.80
2023-01-30T11:03:48.066Z,0.80
2023-01-30T11:07:52.003Z,0.80
2023-01-30T11:11:55.705Z,0.80
2023-01-30T11:16:02.468Z,0.80
2023-01-30T11:20:14.711Z,0.90
2023-01-30T11:24:21.882Z,0.90
2023-01-30T11:28:22.243Z,1.00
2023-01-30T11:32:30.747Z,1.00
2023-01-30T11:36:39.052Z,1.00
2023-01-30T11:40:42.740Z,0.90
2023-01-30T11:44:44.957Z,0.80
2023-01-30T11:49:02.430Z,0.80
2023-01-30T11:53:30.959Z,0.90
2023-01-30T11:57:31.481Z,0.80
2023-01-30T12:01:35.248Z,0.80
2023-01-30T12:05:42.911Z,0.80
2023-01-30T12:09:43.096Z,0.80
2023-01-30T12:13:48.413Z,0.80
2023-01-30T12:17:59.153Z,0.80
2023-01-30T12:22:12.597Z,0.90
2023-01-30T12:26:23.064Z,1.00
2023-01-30T12:30:42.789Z,1.00
2023-01-30T12:34:45.651Z,1.10
2023-01-30T12:39:15.653Z,1.00
2023-01-30T12:43:49.042Z,1.00
2023-01-30T12:48:16.964Z,1.10
2023-01-30T12:53:01.845Z,1.10
2023-01-30T12:57:19.981Z,1.10
2023-01-30T13:01:32.931Z,1.30
2023-01-30T13:05:44.740Z,1.40
2023-01-30T13:10:14.057Z,1.60
2023-01-30T13:14:33.661Z,1.60
2023-01-30T13:18:43.309Z,1.60
2023-01-30T13:22:52.437Z,1.50
2023-01-30T13:26:55.666Z,1.60
2023-01-30T13:30:59.916Z,1.70
2023-01-30T13:35:03.724Z,1.60
2023-01-30T13:39:13.530Z,1.60
2023-01-30T13:43:24.048Z,1.60
2023-01-30T13:47:51.969Z,1.70
2023-01-30T13:52:02.662Z,1.80
2023-01-30T13:56:39.830Z,1.80
2023-01-30T14:00:39.309Z,1.90
2023-01-30T14:04:57.164Z,1.90
2023-01-30T14:09:25.270Z,1.90
2023-01-30T14:13:32.132Z,2.00
2023-01-30T14:17:33.406Z,2.00
2023-01-30T14:21:36.766Z,2.00
2023-01-30T14:25:58.497Z,2.00
2023-01-30T14:29:59.615Z,2.00
2023-01-30T14:33:59.903Z,1.90
2023-01-30T14:38:20.786Z,1.90
2023-01-30T14:42:27.339Z,2.00
2023-01-30T14:46:54.527Z,2.00
2023-01-30T14:51:20.430Z,2.00
2023-01-30T14:55:29.702Z,2.10
2023-01-30T14:59:35.108Z,2.00
2023-01-30T15:03:41.258Z,2.00
2023-01-30T15:07:47.219Z,1.90
2023-01-30T15:12:08.729Z,1.90
2023-01-30T15:16:40.255Z,1.90
2023-01-30T15:21:02.520Z,1.90
2023-01-30T15:25:40.483Z,2.00
2023-01-30T15:30:20.461Z,2.00
2023-01-30T15:34:24.099Z,1.90
2023-01-30T15:38:32.347Z,1.90
2023-01-30T15:42:32.504Z,2.00
2023-01-30T15:46:50.266Z,2.00
2023-01-30T15:50:57.983Z,2.00
2023-01-30T15:55:03.109Z,2.00
2023-01-30T15:59:05.832Z,2.00
2023-01-30T16:03:23.456Z,1.90
2023-01-30T16:07:29.335Z,1.80
2023-01-30T16:11:39.390Z,1.80
2023-01-30T16:15:47.436Z,1.80
2023-01-30T16:19:50.210Z,1.80
2023-01-30T16:24:00.387Z,1.80
2023-01-30T16:28:00.509Z,1.90
2023-01-30T16:32:01.124Z,1.90
2023-01-30T16:36:04.684Z,1.90
2023-01-30T16:40:19.199Z,2.00
2023-01-30T16:44:25.359Z,1.90
2023-01-30T16:48:33.936Z,2.00
2023-01-30T16:52:41.361Z,2.00
2023-01-30T16:56:48.037Z,2.00
2023-01-30T17:00:53.840Z,2.00
2023-01-30T17:04:54.027Z,2.00
2023-01-30T17:08:58.986Z,2.00
2023-01-30T17:12:59.722Z,2.00
2023-01-30T17:17:07.672Z,2.00
2023-01-30T17:21:08.235Z,2.10
2023-01-30T17:25:24.942Z,2.10
2023-01-30T17:29:41.296Z,2.10
2023-01-30T17:33:42.362Z,2.00
2023-01-30T17:37:45.280Z,2.10
2023-01-30T17:41:48.709Z,2.10
2023-01-30T17:45:48.786Z,2.20
2023-01-30T17:49:48.843Z,2.20
2023-01-30T17:53:48.875Z,2.20
2023-01-30T17:57:53.152Z,2.10
2023-01-30T18:01:54.995Z,2.10
2023-01-30T18:05:55.125Z,2.10
2023-01-30T18:09:55.455Z,2.10
2023-01-30T18:13:58.112Z,2.10
2023-01-30T18:17:58.631Z,2.00
2023-01-30T18:21:58.869Z,2.10
2023-01-30T18:25:58.973Z,2.10
2023-01-30T18:30:01.650Z,2.00
2023-01-30T18:34:02.006Z,2.00
2023-01-30T18:38:03.034Z,2.00
2023-01-30T18:42:04.253Z,2.00
2023-01-30T18:46:13.265Z,2.00
2023-01-30T18:50:14.333Z,2.10
2023-01-30T18:54:14.624Z,2.20
2023-01-30T18:58:14.688Z,2.20
2023-01-30T19:02:17.750Z,2.20
2023-01-30T19:06:20.414Z,2.20
2023-01-30T19:10:21.346Z,2.20
2023-01-30T19:14:21.861Z,2.10
2023-01-30T19:18:24.535Z,2.10
2023-01-30T19:22:24.932Z,2.00
2023-01-30T19:26:26.522Z,2.10
2023-01-30T19:30:26.654Z,2.10
2023-01-30T19:34:29.395Z,2.10
2023-01-30T19:38:30.479Z,2.10
2023-01-30T19:42:30.619Z,2.00
2023-01-30T19:46:31.479Z,2.00
2023-01-30T19:50:34.231Z,2.00
2023-01-30T19:54:34.528Z,2.10
2023-01-30T19:58:34.759Z,2.10
2023-01-30T20:02:34.855Z,2.10
2023-01-30T20:06:39.781Z,2.10
2023-01-30T20:10:41.806Z,2.10
2023-01-30T20:14:41.917Z,2.10
2023-01-30T20:18:43.237Z,2.10
2023-01-30T20:22:46.434Z,2.20
2023-01-30T20:26:48.502Z,2.20
2023-01-30T20:30:49.050Z,2.20
2023-01-30T20:34:50.065Z,2.20
2023-01-30T20:38:53.768Z,2.30
2023-01-30T20:42:53.804Z,2.30
2023-01-30T20:46:54.955Z,2.30
2023-01-30T20:50:55.332Z,2.20
2023-01-30T20:54:58.047Z,2.20
2023-01-30T20:58:58.855Z,2.20
2023-01-30T21:02:59.190Z,2.20
2023-01-30T21:06:59.289Z,2.30
2023-01-30T21:11:08.280Z,2.30
2023-01-30T21:15:10.471Z,2.20
2023-01-30T21:19:15.271Z,2.30
2023-01-30T21:23:15.495Z,2.30
2023-01-30T21:27:19.616Z,2.20
2023-01-30T21:31:23.577Z,2.20
2023-01-30T21:35:23.696Z,2.30
2023-01-30T21:39:36.658Z,2.20
2023-01-30T21:43:40.135Z,2.30
2023-01-30T21:47:40.290Z,2.30
2023-01-30T21:51:43.072Z,2.40
2023-01-30T21:55:43.156Z,2.40
2023-01-30T21:59:46.087Z,2.40
2023-01-30T22:03:46.382Z,2.40
2023-01-30T22:07:46.471Z,2.40
2023-01-30T22:11:46.722Z,2.40
2023-01-30T22:15:49.405Z,2.40
2023-01-30T22:19:49.495Z,2.40
2023-01-30T22:23:53.833Z,2.40
2023-01-30T22:27:54.343Z,2.50
2023-01-30T22:31:57.225Z,2.50
2023-01-30T22:35:57.566Z,2.50
2023-01-30T22:39:57.619Z,2.60
2023-01-30T22:43:59.811Z,2.60
2023-01-30T22:48:02.412Z,2.60
2023-01-30T22:52:02.462Z,2.70
2023-01-30T22:56:07.711Z,2.70
2023-01-30T23:00:10.390Z,2.70
2023-01-30T23:04:16.182Z,2.60
2023-01-30T23:08:16.164Z,2.60
2023-01-30T23:12:28.470Z,2.60
2023-01-30T23:16:30.787Z,2.60
2023-01-30T23:20:33.491Z,2.60
2023-01-30T23:24:33.560Z,2.60
2023-01-30T23:28:33.866Z,2.50
2023-01-30T23:32:33.878Z,2.60
2023-01-30T23:36:37.689Z,2.60
2023-01-30T23:40:37.702Z,2.60
2023-01-30T23:44:37.748Z,2.60
2023-01-30T23:48:37.692Z,2.60
2023-01-30T23:52:40.283Z,2.60
2023-01-30T23:56:43.291Z,2.70
